Time;durP1;ratioP1;P1;durP2;ratioP2;P2;SDS_P1;SDS_P2;PMS_P1;PMS_P2;Temp;Humidity;BMP_temperature;BMP_pressure;BME280_temperature;BME280_humidity;BME280_pressure;Samples;Min_cycle;Max_cycle;Signal;HPM_P1;HPM_P2
2021/08/21 00:02:14;;;;;;;26.90;25.40;;;18.20;83.10;;;;;;5084328;28;20449;-70
2021/08/21 00:04:41;;;;;;;26.97;25.47;;;18.20;83.30;;;;;;5083405;28;20452;-70
2021/08/21 00:07:08;;;;;;;27.07;25.57;;;18.30;83.00;;;;;;5080744;28;20471;-70
2021/08/21 00:09:37;;;;;;;27.80;26.10;;;18.30;83.00;;;;;;5080251;28;20482;-70
2021/08/21 00:12:05;;;;;;;26.33;24.93;;;18.30;82.90;;;;;;5085161;28;20597;-70
2021/08/21 00:14:32;;;;;;;27.47;25.87;;;18.30;82.90;;;;;;5083267;28;20457;-70
2021/08/21 00:16:59;;;;;;;26.40;24.90;;;18.30;82.90;;;;;;5081761;28;20465;-70
2021/08/21 00:19:26;;;;;;;27.47;25.73;;;18.30;82.70;;;;;;5083399;28;20457;-70
2021/08/21 00:21:53;;;;;;;26.57;25.00;;;18.30;82.80;;;;;;5080773;28;20469;-70
2021/08/21 00:24:20;;;;;;;26.00;24.60;;;18.30;82.80;;;;;;5081249;28;20549;-70
2021/08/21 00:26:49;;;;;;;26.60;25.10;;;18.30;82.70;;;;;;5081630;28;20536;-70
2021/08/21 00:29:16;;;;;;;26.77;25.13;;;18.30;82.80;;;;;;5081586;28;20488;-70
2021/08/21 00:31:43;;;;;;;25.60;24.30;;;18.30;82.70;;;;;;5081375;28;20964;-70
2021/08/21 00:34:09;;;;;;;26.07;24.60;;;18.30;82.70;;;;;;5083363;28;20485;-70
2021/08/21 00:36:36;;;;;;;27.00;25.40;;;18.30;82.70;;;;;;5082459;28;20489;-70
2021/08/21 00:39:04;;;;;;;26.53;24.93;;;18.30;82.80;;;;;;5081811;28;20479;-70
2021/08/21 00:41:32;;;;;;;26.73;25.20;;;18.30;82.90;;;;;;5072826;28;20461;-70
2021/08/21 00:44:00;;;;;;;26.50;25.10;;;18.40;82.80;;;;;;5080085;28;20887;-70
2021/08/21 00:46:27;;;;;;;27.03;25.53;;;18.30;83.00;;;;;;5076926;28;20549;-70
2021/08/21 00:48:54;;;;;;;27.33;25.67;;;18.30;83.20;;;;;;5082364;28;20948;-70
2021/08/21 00:51:21;;;;;;;26.77;25.37;;;18.30;83.20;;;;;;5077855;28;20958;-70
2021/08/21 00:53:48;;;;;;;26.87;24.90;;;18.30;83.20;;;;;;5081410;28;20969;-70
2021/08/21 00:56:16;;;;;;;25.70;24.30;;;18.30;83.50;;;;;;5085761;28;20981;-70
2021/08/21 00:58:43;;;;;;;26.90;25.37;;;18.30;83.60;;;;;;5084597;28;20476;-70
2021/08/21 01:01:11;;;;;;;26.30;24.80;;;18.30;83.70;;;;;;5083189;28;20525;-70
2021/08/21 01:03:38;;;;;;;25.73;24.23;;;18.20;83.60;;;;;;5084210;28;20463;-70
2021/08/21 01:06:05;;;;;;;26.50;25.00;;;18.20;83.80;;;;;;5074873;28;20464;-70
2021/08/21 01:08:32;;;;;;;26.67;25.07;;;18.20;83.80;;;;;;5083773;28;20485;-70
2021/08/21 01:10:59;;;;;;;26.40;24.80;;;18.20;83.90;;;;;;5084818;28;20873;-70
2021/08/21 01:13:26;;;;;;;26.17;24.77;;;18.20;84.00;;;;;;5085268;28;20559;-70
2021/08/21 01:15:53;;;;;;;26.60;25.10;;;18.20;84.00;;;;;;5078364;28;20450;-70
2021/08/21 01:18:23;;;;;;;25.83;24.33;;;18.20;84.10;;;;;;5082718;28;20484;-70
2021/08/21 01:20:50;;;;;;;26.23;24.63;;;18.20;84.20;;;;;;5081335;28;20464;-70
2021/08/21 01:23:17;;;;;;;26.00;24.60;;;18.20;84.20;;;;;;5082698;28;20468;-70
2021/08/21 01:25:44;;;;;;;26.03;24.53;;;18.20;84.10;;;;;;5081531;28;20591;-70
2021/08/21 01:28:13;;;;;;;25.80;24.37;;;18.20;84.20;;;;;;5080230;28;20823;-70
2021/08/21 01:30:42;;;;;;;26.43;24.93;;;18.20;84.40;;;;;;5080100;28;20457;-70
2021/08/21 01:33:09;;;;;;;26.87;25.20;;;18.10;84.50;;;;;;5085486;28;20488;-70
2021/08/21 01:35:36;;;;;;;26.87;25.37;;;18.10;84.50;;;;;;5082021;28;20483;-70
2021/08/21 01:38:03;;;;;;;26.70;25.13;;;18.20;84.50;;;;;;5071147;28;20863;-70
2021/08/21 01:40:30;;;;;;;26.83;25.23;;;18.20;84.50;;;;;;5082361;28;20463;-70
2021/08/21 01:42:57;;;;;;;27.73;25.80;;;18.20;84.40;;;;;;5080788;28;21096;-70
2021/08/21 01:45:25;;;;;;;27.23;25.63;;;18.20;84.40;;;;;;5081313;28;20488;-70
2021/08/21 01:47:52;;;;;;;26.83;25.37;;;18.10;84.50;;;;;;5084032;28;20472;-70
2021/08/21 01:50:20;;;;;;;26.67;25.17;;;18.20;84.20;;;;;;5078569;28;20479;-69
2021/08/21 01:52:48;;;;;;;26.87;25.23;;;18.20;84.40;;;;;;5085041;28;20454;-70
2021/08/21 01:55:15;;;;;;;26.40;25.00;;;18.10;84.50;;;;;;5081741;28;20459;-70
2021/08/21 01:57:43;;;;;;;26.40;24.90;;;18.10;84.70;;;;;;5076828;28;20473;-70
2021/08/21 02:00:11;;;;;;;26.60;24.90;;;18.10;84.80;;;;;;5081551;28;20950;-70
2021/08/21 02:02:40;;;;;;;25.60;24.20;;;18.00;84.90;;;;;;5081267;28;20460;-70
2021/08/21 02:05:08;;;;;;;27.20;25.30;;;18.10;85.00;;;;;;5082938;28;20970;-70
2021/08/21 02:07:35;;;;;;;25.73;24.33;;;18.00;85.10;;;;;;5079800;28;20509;-70
2021/08/21 02:10:03;;;;;;;26.47;24.97;;;18.00;85.10;;;;;;5077021;28;21038;-70
2021/08/21 02:12:30;;;;;;;26.20;24.60;;;17.90;85.10;;;;;;5076973;28;20545;-70
2021/08/21 02:14:57;;;;;;;26.43;24.93;;;17.90;85.30;;;;;;5078195;28;20462;-70
2021/08/21 02:17:24;;;;;;;27.07;25.57;;;17.90;85.20;;;;;;5084521;28;21033;-70
2021/08/21 02:19:52;;;;;;;26.43;24.93;;;17.90;85.30;;;;;;5089813;28;20513;-70
2021/08/21 02:22:19;;;;;;;27.00;25.50;;;17.90;85.40;;;;;;5088434;28;20461;-70
2021/08/21 02:24:52;;;;;;;27.20;25.50;;;17.80;85.40;;;;;;5089409;28;20803;-70
2021/08/21 02:27:25;;;;;;;25.80;24.40;;;17.80;85.60;;;;;;5088276;28;20479;-70
2021/08/21 02:29:52;;;;;;;25.60;24.10;;;17.70;85.70;;;;;;5087102;28;20576;-70
2021/08/21 02:32:19;;;;;;;26.67;25.07;;;17.70;85.80;;;;;;5085142;28;20457;-70
2021/08/21 02:34:46;;;;;;;26.70;24.80;;;17.60;86.00;;;;;;5087542;28;20461;-70
2021/08/21 02:37:17;;;;;;;26.70;24.97;;;17.60;86.10;;;;;;5083023;28;20477;-70
2021/08/21 02:39:44;;;;;;;27.23;25.63;;;17.50;86.10;;;;;;5085041;28;20447;-70
2021/08/21 02:42:12;;;;;;;26.90;25.30;;;17.50;86.10;;;;;;5084314;28;20461;-70
2021/08/21 02:44:39;;;;;;;28.20;26.50;;;17.50;86.40;;;;;;5088732;28;20453;-70
2021/08/21 02:47:06;;;;;;;26.80;25.20;;;17.40;86.60;;;;;;5086549;28;20453;-70
2021/08/21 02:49:33;;;;;;;27.17;25.53;;;17.40;86.60;;;;;;5082118;28;21187;-70
2021/08/21 02:52:00;;;;;;;26.67;24.77;;;17.30;86.70;;;;;;5085519;28;20461;-70
2021/08/21 02:54:29;;;;;;;27.03;25.30;;;17.30;87.00;;;;;;5087261;28;20539;-70
2021/08/21 02:56:56;;;;;;;27.00;25.20;;;17.30;87.20;;;;;;5087963;28;20562;-70
2021/08/21 02:59:23;;;;;;;27.53;25.93;;;17.20;87.30;;;;;;5085686;28;20466;-70
2021/08/21 03:01:50;;;;;;;26.23;24.60;;;17.20;87.30;;;;;;5087530;28;20461;-70
2021/08/21 03:04:17;;;;;;;26.07;24.47;;;17.10;87.40;;;;;;5082010;28;20460;-70
2021/08/21 03:06:44;;;;;;;26.07;24.60;;;17.10;87.60;;;;;;5088968;28;20556;-70
2021/08/21 03:09:10;;;;;;;26.57;24.90;;;17.00;87.90;;;;;;5079319;28;20494;-70
2021/08/21 03:11:39;;;;;;;25.90;24.30;;;17.00;87.80;;;;;;5084121;28;20460;-70
2021/08/21 03:14:06;;;;;;;26.90;25.17;;;17.00;87.90;;;;;;5078300;28;20467;-70
2021/08/21 03:16:33;;;;;;;25.47;24.03;;;16.90;88.10;;;;;;5085974;28;20971;-70
2021/08/21 03:18:59;;;;;;;26.40;24.80;;;16.90;88.00;;;;;;5084854;28;20483;-70
2021/08/21 03:21:26;;;;;;;25.60;24.20;;;16.90;88.00;;;;;;5084608;28;20540;-70
2021/08/21 03:23:53;;;;;;;25.13;23.67;;;16.90;88.20;;;;;;5077015;28;20469;-69
2021/08/21 03:26:20;;;;;;;25.30;23.80;;;16.80;88.40;;;;;;5086292;28;20981;-70
2021/08/21 03:28:48;;;;;;;25.63;23.80;;;16.80;88.60;;;;;;5081269;28;20475;-70
2021/08/21 03:31:15;;;;;;;27.40;25.77;;;16.80;88.70;;;;;;5087180;28;21045;-70
2021/08/21 03:33:44;;;;;;;25.10;23.50;;;16.80;88.50;;;;;;5080163;28;20453;-70
2021/08/21 03:36:11;;;;;;;26.43;24.83;;;16.80;88.50;;;;;;5076957;28;20980;-70
2021/08/21 03:38:38;;;;;;;26.77;24.80;;;16.70;88.50;;;;;;5081633;28;20488;-70
2021/08/21 03:41:05;;;;;;;26.30;24.70;;;16.70;88.60;;;;;;5086194;28;20684;-70
2021/08/21 03:43:31;;;;;;;26.43;24.93;;;16.70;88.60;;;;;;5079822;28;20457;-70
2021/08/21 03:46:00;;;;;;;26.13;24.53;;;16.60;88.90;;;;;;5076568;28;20466;-70
2021/08/21 03:48:26;;;;;;;25.40;23.90;;;16.50;89.10;;;;;;5085918;28;20820;-69
2021/08/21 03:50:53;;;;;;;26.10;24.60;;;16.50;89.30;;;;;;5084687;28;20499;-70
2021/08/21 03:53:20;;;;;;;25.80;24.30;;;16.50;89.30;;;;;;5084503;28;20469;-69
2021/08/21 03:55:49;;;;;;;26.60;24.87;;;16.40;89.50;;;;;;5080167;28;20489;-70
2021/08/21 03:58:16;;;;;;;25.93;24.23;;;16.40;89.40;;;;;;5080554;28;20487;-70
2021/08/21 04:00:43;;;;;;;26.87;25.27;;;16.50;89.30;;;;;;5082699;28;20982;-70
2021/08/21 04:03:11;;;;;;;25.90;24.40;;;16.50;89.10;;;;;;5082902;28;20800;-70
2021/08/21 04:05:38;;;;;;;26.10;24.50;;;16.50;89.00;;;;;;5086180;28;20461;-70
2021/08/21 04:08:05;;;;;;;30.40;28.40;;;16.50;89.00;;;;;;5040107;28;1121540;-70
2021/08/21 04:10:32;;;;;;;26.20;24.70;;;16.50;89.10;;;;;;5085861;28;20357;-70
2021/08/21 04:12:59;;;;;;;27.63;26.03;;;16.50;89.10;;;;;;5080990;28;21002;-70
2021/08/21 04:15:26;;;;;;;26.70;24.83;;;16.50;89.10;;;;;;5086188;28;20543;-70
2021/08/21 04:17:53;;;;;;;26.27;24.67;;;16.40;89.10;;;;;;5080064;28;20477;-70
2021/08/21 04:20:21;;;;;;;29.67;27.50;;;16.40;89.30;;;;;;5085899;28;20841;-70
2021/08/21 04:22:48;;;;;;;25.40;23.80;;;16.40;89.30;;;;;;5080492;28;20462;-70
2021/08/21 04:25:15;;;;;;;27.50;26.00;;;16.40;89.30;;;;;;5083281;28;20487;-70
2021/08/21 04:27:43;;;;;;;26.40;24.90;;;16.40;89.20;;;;;;5080523;28;20503;-70
2021/08/21 04:30:10;;;;;;;27.53;26.03;;;16.30;89.20;;;;;;5082783;28;20572;-70
2021/08/21 04:32:37;;;;;;;27.43;25.63;;;16.30;89.40;;;;;;5076433;28;20455;-70
2021/08/21 04:35:05;;;;;;;26.87;25.37;;;16.30;89.40;;;;;;5085829;28;20461;-70
2021/08/21 04:37:33;;;;;;;27.07;25.17;;;16.30;89.40;;;;;;5080658;28;20946;-70
2021/08/21 04:40:00;;;;;;;25.77;24.27;;;16.30;89.40;;;;;;5081820;28;20893;-70
2021/08/21 04:42:27;;;;;;;26.50;24.90;;;16.30;89.40;;;;;;5083029;28;20457;-70
2021/08/21 04:44:59;;;;;;;28.93;27.23;;;16.30;89.10;;;;;;5083921;28;20453;-70
2021/08/21 04:47:25;;;;;;;29.83;28.13;;;16.40;89.00;;;;;;5081197;28;20483;-70
2021/08/21 04:49:52;;;;;;;27.90;26.03;;;16.50;88.60;;;;;;5075778;28;20492;-70
2021/08/21 04:52:19;;;;;;;26.50;24.70;;;16.50;88.60;;;;;;5085666;28;20463;-70
2021/08/21 04:54:48;;;;;;;25.67;24.17;;;16.60;88.40;;;;;;5081515;28;20464;-70
2021/08/21 04:57:15;;;;;;;25.93;24.23;;;16.60;88.10;;;;;;5077641;28;20998;-71
2021/08/21 04:59:42;;;;;;;25.57;23.97;;;16.70;87.70;;;;;;5083658;28;20449;-71
2021/08/21 05:02:09;;;;;;;30.10;28.40;;;16.80;87.30;;;;;;5082464;28;20469;-74
2021/08/21 05:04:36;;;;;;;25.53;24.00;;;16.80;87.30;;;;;;5084817;28;20827;-71
2021/08/21 05:07:03;;;;;;;28.00;26.27;;;16.80;87.30;;;;;;5081670;28;20860;-70
2021/08/21 05:09:30;;;;;;;27.07;25.50;;;16.90;87.00;;;;;;5085878;28;20752;-70
2021/08/21 05:11:59;;;;;;;25.50;24.10;;;16.90;87.00;;;;;;5085441;28;20464;-70
2021/08/21 05:14:25;;;;;;;29.47;27.77;;;17.00;86.80;;;;;;5078931;28;20464;-70
2021/08/21 05:16:52;;;;;;;29.33;27.43;;;17.10;86.50;;;;;;5081959;28;20453;-70
2021/08/21 05:19:27;;;;;;;27.10;25.33;;;17.20;86.40;;;;;;5082452;28;20548;-70
2021/08/21 05:21:57;;;;;;;28.70;27.07;;;17.30;85.90;;;;;;5080451;28;21009;-70
2021/08/21 05:24:26;;;;;;;29.20;27.50;;;17.50;85.50;;;;;;5083003;28;20455;-70
2021/08/21 05:26:52;;;;;;;27.40;25.80;;;17.60;85.20;;;;;;5086513;28;20461;-70
2021/08/21 05:29:21;;;;;;;27.60;25.70;;;17.70;84.90;;;;;;5082276;28;20456;-70
2021/08/21 05:31:48;;;;;;;32.93;29.83;;;17.80;84.60;;;;;;5084279;28;20481;-70
2021/08/21 05:34:15;;;;;;;30.90;28.97;;;17.90;84.00;;;;;;5084412;28;20476;-70
2021/08/21 05:36:42;;;;;;;30.13;28.30;;;17.90;83.90;;;;;;5079854;28;20540;-70
2021/08/21 05:39:11;;;;;;;26.80;25.27;;;17.90;83.80;;;;;;5081637;28;20508;-70
2021/08/21 05:41:38;;;;;;;29.60;27.90;;;18.00;83.70;;;;;;5080346;28;20457;-70
2021/08/21 05:44:05;;;;;;;29.47;27.67;;;18.10;83.40;;;;;;5082397;28;20818;-70
2021/08/21 05:46:33;;;;;;;27.10;25.50;;;18.20;83.10;;;;;;5082757;28;20464;-70
2021/08/21 05:49:00;;;;;;;26.50;24.90;;;18.30;82.60;;;;;;5081830;28;20475;-70
2021/08/21 05:51:29;;;;;;;26.30;24.60;;;18.50;82.00;;;;;;5084443;28;20477;-70
2021/08/21 05:53:55;;;;;;;30.03;28.20;;;18.60;81.60;;;;;;5080895;28;20711;-70
2021/08/21 05:56:22;;;;;;;27.53;25.97;;;18.60;81.60;;;;;;5078590;28;20462;-70
2021/08/21 05:58:49;;;;;;;28.83;27.10;;;18.60;81.60;;;;;;5082347;28;20480;-70
2021/08/21 06:01:16;;;;;;;28.23;26.53;;;18.70;81.50;;;;;;5081387;28;20451;-70
2021/08/21 06:03:45;;;;;;;30.20;28.50;;;18.70;81.30;;;;;;5084483;28;20460;-70
2021/08/21 06:06:12;;;;;;;29.00;27.40;;;18.80;81.20;;;;;;5080853;28;20545;-70
2021/08/21 06:08:39;;;;;;;27.13;25.60;;;18.90;81.10;;;;;;5081377;28;20489;-70
2021/08/21 06:11:05;;;;;;;28.13;26.53;;;19.00;80.60;;;;;;5077676;28;20474;-70
2021/08/21 06:13:32;;;;;;;31.10;29.40;;;19.10;80.50;;;;;;5082907;28;20449;-70
2021/08/21 06:16:00;;;;;;;30.77;29.07;;;19.10;80.10;;;;;;5082192;28;20476;-70
2021/08/21 06:18:27;;;;;;;28.00;26.40;;;19.20;80.00;;;;;;5081385;28;20567;-70
2021/08/21 06:20:55;;;;;;;28.60;27.00;;;19.20;79.90;;;;;;5081007;28;20457;-74
2021/08/21 06:23:22;;;;;;;32.80;30.80;;;19.30;79.80;;;;;;5075953;28;20454;-76
2021/08/21 06:25:49;;;;;;;30.87;29.10;;;19.40;79.80;;;;;;5073806;28;20469;-71
2021/08/21 06:28:16;;;;;;;29.77;28.10;;;19.40;79.70;;;;;;5075506;28;20495;-71
2021/08/21 06:30:43;;;;;;;34.37;32.57;;;19.60;79.30;;;;;;5077694;28;20491;-71
2021/08/21 06:33:09;;;;;;;29.00;27.40;;;19.70;78.90;;;;;;5082680;28;20464;-71
2021/08/21 06:35:36;;;;;;;31.10;29.20;;;19.70;78.70;;;;;;5083802;28;20552;-71
2021/08/21 06:38:05;;;;;;;29.97;28.10;;;19.70;79.00;;;;;;5082974;28;20476;-70
2021/08/21 06:40:32;;;;;;;30.13;28.13;;;19.70;79.30;;;;;;5082806;28;20463;-71
2021/08/21 06:42:58;;;;;;;31.57;29.67;;;19.80;78.80;;;;;;5085927;28;20545;-71
2021/08/21 06:45:25;;;;;;;32.70;30.80;;;20.00;78.30;;;;;;5083948;28;20994;-71
2021/08/21 06:47:55;;;;;;;30.90;29.10;;;20.10;77.70;;;;;;5084752;28;20573;-71
2021/08/21 06:50:23;;;;;;;31.90;30.10;;;20.20;77.00;;;;;;5082459;28;20487;-72
2021/08/21 06:52:51;;;;;;;30.90;29.00;;;20.20;76.70;;;;;;5085004;28;20556;-72
2021/08/21 06:55:20;;;;;;;31.57;29.87;;;20.30;76.30;;;;;;5083974;28;20497;-72
2021/08/21 06:57:47;;;;;;;33.20;31.30;;;20.30;76.20;;;;;;5085225;28;20477;-73
2021/08/21 07:00:14;;;;;;;33.13;31.03;;;20.40;76.20;;;;;;5083655;28;20463;-72
2021/08/21 07:02:41;;;;;;;32.73;30.73;;;20.50;76.10;;;;;;5086444;28;20464;-72
2021/08/21 07:05:09;;;;;;;32.07;30.20;;;20.60;75.40;;;;;;5086304;28;20759;-72
2021/08/21 07:07:36;;;;;;;31.87;29.93;;;20.70;74.70;;;;;;5089362;28;20481;-72
2021/08/21 07:10:03;;;;;;;31.83;29.70;;;20.70;74.70;;;;;;5085430;28;20461;-74
2021/08/21 07:12:32;;;;;;;34.73;32.63;;;20.70;75.00;;;;;;5083754;28;20548;-73
2021/08/21 07:14:59;;;;;;;31.63;29.83;;;20.80;75.40;;;;;;5087095;28;20642;-72
2021/08/21 07:17:25;;;;;;;33.57;31.67;;;20.90;74.80;;;;;;5082295;28;20509;-74
2021/08/21 07:19:52;;;;;;;32.50;30.60;;;21.00;74.00;;;;;;5086694;28;20552;-72
2021/08/21 07:22:19;;;;;;;32.40;30.50;;;21.00;73.90;;;;;;5083323;28;20484;-73
2021/08/21 07:24:46;;;;;;;31.80;29.80;;;21.10;73.50;;;;;;5087456;28;20457;-72
2021/08/21 07:27:13;;;;;;;34.37;32.17;;;21.10;73.50;;;;;;5084854;28;20473;-72
2021/08/21 07:29:42;;;;;;;31.60;29.47;;;21.10;73.30;;;;;;5086819;28;22089;-72
2021/08/21 07:32:09;;;;;;;33.70;31.70;;;21.10;73.50;;;;;;5087652;28;21030;-72
2021/08/21 07:34:38;;;;;;;32.00;30.10;;;21.10;73.50;;;;;;5089085;28;20950;-72
2021/08/21 07:37:05;;;;;;;34.60;32.57;;;21.20;73.30;;;;;;5084473;28;20456;-73
2021/08/21 07:39:32;;;;;;;37.73;34.33;;;21.30;73.10;;;;;;5087041;28;20467;-72
2021/08/21 07:41:59;;;;;;;65.90;42.40;;;21.50;73.00;;;;;;5081779;28;20533;-72
2021/08/21 07:44:26;;;;;;;33.50;31.40;;;21.70;72.20;;;;;;5083125;28;20545;-73
2021/08/21 07:46:55;;;;;;;31.60;29.77;;;21.80;71.90;;;;;;5086772;28;20479;-72
2021/08/21 07:49:21;;;;;;;31.23;29.13;;;21.80;71.90;;;;;;5086582;28;20539;-72
2021/08/21 07:51:49;;;;;;;35.70;33.80;;;21.80;71.80;;;;;;5086178;28;20576;-72
2021/08/21 07:54:15;;;;;;;32.57;30.43;;;21.90;71.50;;;;;;5082460;28;20487;-77
2021/08/21 07:56:42;;;;;;;32.53;30.63;;;22.00;71.10;;;;;;5082779;28;20459;-72
2021/08/21 07:59:09;;;;;;;30.53;28.63;;;22.10;70.90;;;;;;5086537;28;20499;-72
2021/08/21 08:01:36;;;;;;;32.40;30.50;;;22.10;70.70;;;;;;5087379;28;20536;-72
2021/08/21 08:04:05;;;;;;;31.70;29.90;;;22.20;70.70;;;;;;5082633;28;20472;-71
2021/08/21 08:06:32;;;;;;;34.20;32.20;;;22.30;70.70;;;;;;5077406;28;20465;-71
2021/08/21 08:08:59;;;;;;;32.80;30.97;;;22.50;70.10;;;;;;5080095;28;20486;-71
2021/08/21 08:11:25;;;;;;;34.13;32.03;;;22.60;69.80;;;;;;5086779;28;20481;-71
2021/08/21 08:13:52;;;;;;;33.00;31.10;;;22.70;69.30;;;;;;5077880;28;20464;-71
2021/08/21 08:16:19;;;;;;;32.80;31.10;;;22.70;68.80;;;;;;5080420;28;20453;-71
2021/08/21 08:18:47;;;;;;;32.23;30.40;;;22.80;68.70;;;;;;5082440;28;20479;-72
2021/08/21 08:21:18;;;;;;;33.60;31.50;;;23.00;68.50;;;;;;5082477;28;20457;-78
2021/08/21 08:23:45;;;;;;;32.83;30.80;;;23.10;68.20;;;;;;5083104;28;20463;-76
2021/08/21 08:26:12;;;;;;;33.03;31.03;;;23.20;68.00;;;;;;5087618;28;20475;-78
2021/08/21 08:28:39;;;;;;;29.93;28.13;;;23.20;68.30;;;;;;5081635;28;20487;-72
2021/08/21 08:31:06;;;;;;;32.80;30.90;;;23.30;68.40;;;;;;5084836;28;20485;-72
2021/08/21 08:33:34;;;;;;;33.80;31.83;;;23.40;67.80;;;;;;5085350;28;20556;-72
2021/08/21 08:36:01;;;;;;;29.80;28.10;;;23.50;67.50;;;;;;5080407;28;20461;-72
2021/08/21 08:38:29;;;;;;;32.00;30.10;;;23.50;67.20;;;;;;5085443;28;20481;-72
2021/08/21 08:40:56;;;;;;;32.60;30.50;;;23.50;66.80;;;;;;5081111;28;20450;-72
2021/08/21 08:43:23;;;;;;;31.60;29.30;;;23.60;66.90;;;;;;5083151;28;20454;-72
2021/08/21 08:45:51;;;;;;;32.90;30.63;;;23.60;66.90;;;;;;5085013;28;20964;-72
2021/08/21 08:48:18;;;;;;;33.50;31.23;;;23.80;67.00;;;;;;5086605;28;20477;-72
2021/08/21 08:50:45;;;;;;;31.40;29.60;;;23.80;67.00;;;;;;5081460;28;20822;-72
2021/08/21 08:53:12;;;;;;;34.33;32.23;;;23.90;67.20;;;;;;5086761;28;20556;-72
2021/08/21 08:55:40;;;;;;;33.37;31.17;;;23.90;67.40;;;;;;5084042;28;20829;-72
2021/08/21 08:58:08;;;;;;;31.87;30.00;;;24.00;67.20;;;;;;5085978;28;20488;-72
2021/08/21 09:00:35;;;;;;;33.80;31.70;;;24.10;67.00;;;;;;5080805;28;20465;-72
2021/08/21 09:03:03;;;;;;;35.00;32.90;;;24.20;67.00;;;;;;5082004;28;20461;-72
2021/08/21 09:05:38;;;;;;;30.93;29.03;;;24.30;66.60;;;;;;5085053;28;20480;-72
2021/08/21 09:08:06;;;;;;;31.57;29.63;;;24.30;66.60;;;;;;5085116;28;20485;-71
2021/08/21 09:10:34;;;;;;;32.97;31.10;;;24.40;66.70;;;;;;5082514;28;20508;-71
2021/08/21 09:13:08;;;;;;;32.43;30.40;;;24.40;66.70;;;;;;5086550;28;20468;-72
2021/08/21 09:15:36;;;;;;;32.90;30.70;;;24.50;66.60;;;;;;5086068;28;20827;-72
2021/08/21 09:18:09;;;;;;;32.20;30.30;;;24.60;66.40;;;;;;5086054;28;20469;-72
2021/08/21 09:20:51;;;;;;;34.37;32.10;;;24.60;66.30;;;;;;5083087;28;20472;-72
2021/08/21 09:23:20;;;;;;;35.00;32.80;;;24.60;66.20;;;;;;5086233;28;20463;-72
2021/08/21 09:25:49;;;;;;;34.57;32.57;;;24.60;66.20;;;;;;5080910;28;20827;-71
2021/08/21 09:28:22;;;;;;;32.70;30.70;;;24.70;66.10;;;;;;5085375;28;21042;-72
2021/08/21 09:31:00;;;;;;;33.73;31.43;;;24.90;66.10;;;;;;5081194;28;20464;-72
2021/08/21 09:33:26;;;;;;;33.53;31.20;;;25.00;66.30;;;;;;5080303;28;20453;-72
2021/08/21 09:35:53;;;;;;;34.07;32.07;;;25.10;65.70;;;;;;5084582;28;20554;-72
2021/08/21 09:38:24;;;;;;;33.13;31.20;;;25.20;65.40;;;;;;5084093;28;20997;-72
2021/08/21 09:41:00;;;;;;;37.10;34.60;;;25.30;65.10;;;;;;5081468;28;20465;-72
2021/08/21 09:43:32;;;;;;;34.90;32.80;;;25.40;65.10;;;;;;5080386;28;20823;-72
2021/08/21 09:46:16;;;;;;;34.80;32.70;;;25.40;64.70;;;;;;5081124;28;20820;-72
2021/08/21 09:49:03;;;;;;;33.30;31.40;;;25.50;64.50;;;;;;5085739;28;20499;-73
2021/08/21 09:51:38;;;;;;;35.20;32.70;;;25.60;64.30;;;;;;5079421;28;20481;-72
2021/08/21 09:54:08;;;;;;;34.10;32.00;;;25.70;64.00;;;;;;5082343;28;21065;-72
2021/08/21 09:56:36;;;;;;;33.43;31.33;;;25.80;64.00;;;;;;5086923;28;20464;-73
2021/08/21 09:59:05;;;;;;;35.40;33.00;;;25.90;63.70;;;;;;5083955;28;20497;-73
2021/08/21 10:01:33;;;;;;;34.67;32.67;;;26.00;63.20;;;;;;5084539;28;20445;-73
2021/08/21 10:04:01;;;;;;;33.30;31.30;;;26.00;62.90;;;;;;5084150;28;20457;-72
2021/08/21 10:06:28;;;;;;;33.97;31.97;;;26.10;62.80;;;;;;5087018;28;20457;-72
2021/08/21 10:09:00;;;;;;;34.63;32.33;;;26.10;63.00;;;;;;5084873;28;20491;-72
2021/08/21 10:11:28;;;;;;;32.30;30.40;;;26.10;62.00;;;;;;5084678;28;20473;-72
2021/08/21 10:13:57;;;;;;;33.90;31.80;;;26.20;62.20;;;;;;5085261;28;20549;-72
2021/08/21 10:16:27;;;;;;;35.53;33.10;;;26.20;62.60;;;;;;5086475;28;20946;-72
2021/08/21 10:18:55;;;;;;;37.43;34.77;;;26.20;62.80;;;;;;5085239;28;20504;-73
2021/08/21 10:21:23;;;;;;;34.13;32.03;;;26.40;62.40;;;;;;5086122;28;20453;-73
2021/08/21 10:23:51;;;;;;;35.37;32.77;;;26.50;62.20;;;;;;5084248;28;20457;-72
2021/08/21 10:26:28;;;;;;;34.87;32.83;;;26.60;62.30;;;;;;5080431;28;20467;-73
2021/08/21 10:28:56;;;;;;;34.27;32.27;;;26.60;61.90;;;;;;5081899;28;20476;-73
2021/08/21 10:31:41;;;;;;;35.73;33.63;;;26.60;62.00;;;;;;5084966;28;20481;-72
2021/08/21 10:34:10;;;;;;;33.60;31.30;;;26.70;61.70;;;;;;5080676;28;20445;-76
2021/08/21 10:36:49;;;;;;;35.77;33.67;;;26.80;61.90;;;;;;5086960;28;20461;-77
2021/08/21 10:39:34;;;;;;;36.70;34.20;;;26.90;61.80;;;;;;5089798;28;20585;-74
2021/08/21 10:42:21;;;;;;;34.63;32.53;;;27.00;61.60;;;;;;5088532;28;20445;-74
2021/08/21 10:44:50;;;;;;;35.23;33.00;;;27.10;61.10;;;;;;5078942;28;21013;-74
2021/08/21 10:47:40;;;;;;;33.60;31.40;;;27.10;61.00;;;;;;5083514;28;20596;-73
2021/08/21 10:50:34;;;;;;;34.90;32.70;;;27.10;60.80;;;;;;5089536;28;20540;-73
2021/08/21 10:53:02;;;;;;;35.70;33.50;;;27.00;60.30;;;;;;5078226;28;20476;-73
2021/08/21 10:55:37;;;;;;;34.97;32.77;;;27.10;60.50;;;;;;5088185;28;20461;-73
2021/08/21 10:58:13;;;;;;;35.03;32.73;;;27.20;60.50;;;;;;5079354;28;20488;-72
2021/08/21 11:00:45;;;;;;;35.50;33.30;;;27.20;60.50;;;;;;5085780;28;20452;-72
2021/08/21 11:03:15;;;;;;;37.67;35.47;;;27.40;59.80;;;;;;5086359;28;20815;-72
2021/08/21 11:05:54;;;;;;;36.03;33.53;;;27.40;59.20;;;;;;5088901;28;20453;-72
2021/08/21 11:08:21;;;;;;;34.83;32.60;;;27.40;59.10;;;;;;5088348;28;20484;-72
2021/08/21 11:10:49;;;;;;;38.73;36.23;;;27.40;58.90;;;;;;5084708;28;20585;-72
2021/08/21 11:13:50;;;;;;;36.13;34.03;;;27.30;59.40;;;;;;5088516;28;20473;-72
2021/08/21 11:16:20;;;;;;;39.83;37.53;;;27.40;59.20;;;;;;5078245;28;20464;-72
2021/08/21 11:18:49;;;;;;;36.37;34.27;;;27.50;59.60;;;;;;5086978;28;20483;-72
2021/08/21 11:21:34;;;;;;;38.30;35.93;;;27.50;59.30;;;;;;5087778;28;20457;-72
2021/08/21 11:24:02;;;;;;;36.87;34.63;;;27.70;59.10;;;;;;5085100;28;20472;-72
2021/08/21 11:26:29;;;;;;;37.07;34.87;;;27.70;58.90;;;;;;5088125;28;20468;-72
2021/08/21 11:29:09;;;;;;;37.17;35.07;;;27.70;58.10;;;;;;5087768;28;20481;-72
2021/08/21 11:31:54;;;;;;;37.10;34.70;;;27.90;58.70;;;;;;5088432;28;21080;-71
2021/08/21 11:34:22;;;;;;;38.07;35.57;;;28.00;58.60;;;;;;5085823;28;20548;-72
2021/08/21 11:36:50;;;;;;;34.53;32.53;;;28.10;58.60;;;;;;5089188;28;20449;-72
2021/08/21 11:39:17;;;;;;;36.40;34.20;;;28.10;58.00;;;;;;5088987;28;20457;-72
2021/08/21 11:41:58;;;;;;;36.63;34.37;;;28.20;57.70;;;;;;5088816;28;20461;-72
2021/08/21 11:44:31;;;;;;;35.90;33.60;;;28.20;57.50;;;;;;5081099;28;20464;-72
2021/08/21 11:47:06;;;;;;;38.13;35.63;;;28.30;57.50;;;;;;5088910;28;20464;-72
2021/08/21 11:49:35;;;;;;;34.37;32.37;;;28.30;56.60;;;;;;5088104;28;20457;-72
2021/08/21 11:52:02;;;;;;;38.67;36.40;;;28.30;57.20;;;;;;5086346;28;20483;-72
2021/08/21 11:54:29;;;;;;;34.83;32.73;;;28.30;56.90;;;;;;5088238;28;20457;-72
2021/08/21 11:57:00;;;;;;;35.70;33.60;;;28.40;57.20;;;;;;5088498;28;20473;-72
2021/08/21 11:59:28;;;;;;;35.80;33.80;;;28.40;57.00;;;;;;5088606;28;20542;-72
2021/08/21 12:02:04;;;;;;;35.87;33.57;;;28.60;55.60;;;;;;5081093;28;20461;-72
2021/08/21 12:04:33;;;;;;;75.03;40.23;;;28.80;55.80;;;;;;5089096;28;20457;-79
2021/08/21 12:07:01;;;;;;;66.43;38.60;;;28.70;55.60;;;;;;5086908;28;20461;-78
2021/08/21 12:09:28;;;;;;;37.23;34.80;;;28.70;55.60;;;;;;5086916;28;20475;-80
2021/08/21 12:11:57;;;;;;;36.10;33.90;;;28.80;54.70;;;;;;5086316;28;20841;-77
2021/08/21 12:14:25;;;;;;;35.40;33.30;;;28.70;55.30;;;;;;5084328;28;20450;-78
2021/08/21 12:16:56;;;;;;;35.13;33.03;;;28.60;55.00;;;;;;5083663;28;20812;-79
2021/08/21 12:19:25;;;;;;;36.40;34.30;;;28.60;55.30;;;;;;5093506;28;20533;-80
2021/08/21 12:21:56;;;;;;;34.00;32.00;;;28.50;55.30;;;;;;5088642;28;20450;-78
2021/08/21 12:24:24;;;;;;;35.37;33.27;;;28.50;55.30;;;;;;5083960;28;20535;-78
2021/08/21 12:26:51;;;;;;;34.30;32.30;;;28.60;55.30;;;;;;5079280;28;20814;-78
2021/08/21 12:29:23;;;;;;;36.23;34.13;;;28.70;55.50;;;;;;5082007;28;20466;-77
2021/08/21 12:31:51;;;;;;;33.20;31.37;;;28.70;55.40;;;;;;5091300;28;20457;-77
2021/08/21 12:34:18;;;;;;;36.93;34.83;;;28.70;55.00;;;;;;5083800;28;20541;-79